Time;durP1;ratioP1;P1;durP2;ratioP2;P2;SDS_P1;SDS_P2;PMS_P1;PMS_P2;Temp;Humidity;BMP_temperature;BMP_pressure;BME280_temperature;BME280_humidity;BME280_pressure;Samples;Min_cycle;Max_cycle;Signal;HPM_P1;HPM_P2
2022/07/28 00:01:03;;;;;;;3.47;2.30;;;18.00;99.90;;;;;;5071053;28;20457;-67
2022/07/28 00:03:31;;;;;;;4.20;2.47;;;18.00;99.90;;;;;;5071716;28;20450;-68
2022/07/28 00:05:58;;;;;;;4.83;2.60;;;18.00;99.90;;;;;;5071590;28;20462;-69
2022/07/28 00:08:25;;;;;;;5.30;2.40;;;18.00;99.90;;;;;;5071304;28;20516;-68
2022/07/28 00:10:51;;;;;;;4.63;2.43;;;18.00;99.90;;;;;;5070939;28;20469;-68
2022/07/28 00:13:18;;;;;;;5.83;2.70;;;17.90;99.90;;;;;;5070930;28;20439;-69
2022/07/28 00:15:45;;;;;;;7.50;2.83;;;17.80;99.90;;;;;;5071058;28;20491;-66
2022/07/28 00:18:12;;;;;;;4.80;2.70;;;17.80;99.90;;;;;;5071508;28;20462;-69
2022/07/28 00:20:40;;;;;;;2.87;2.30;;;17.70;99.90;;;;;;5071276;28;20480;-67
2022/07/28 00:23:07;;;;;;;7.47;3.53;;;17.60;99.90;;;;;;5071558;28;20454;-67
2022/07/28 00:25:34;;;;;;;3.53;2.50;;;17.60;99.90;;;;;;5070668;28;20466;-68
2022/07/28 00:28:00;;;;;;;5.10;2.80;;;17.50;99.90;;;;;;5071367;28;20459;-69
2022/07/28 00:30:27;;;;;;;5.53;2.40;;;17.30;99.90;;;;;;5069953;28;20542;-68
2022/07/28 00:32:54;;;;;;;4.83;3.10;;;17.30;99.90;;;;;;5071154;28;20983;-68
2022/07/28 00:35:21;;;;;;;3.20;2.50;;;17.40;99.90;;;;;;5070581;28;20853;-68
2022/07/28 00:37:49;;;;;;;5.30;2.83;;;17.40;99.90;;;;;;5071144;28;20459;-68
2022/07/28 00:40:16;;;;;;;4.07;2.50;;;17.40;99.90;;;;;;5069981;28;20948;-68
2022/07/28 00:42:42;;;;;;;6.00;2.87;;;17.40;99.90;;;;;;5071120;28;20453;-67
2022/07/28 00:45:10;;;;;;;6.27;2.67;;;17.30;99.90;;;;;;5070237;28;20447;-68
2022/07/28 00:47:37;;;;;;;5.00;2.43;;;17.30;99.90;;;;;;5070426;28;20455;-70
2022/07/28 00:50:05;;;;;;;3.90;2.50;;;17.20;99.90;;;;;;5070225;28;20960;-68
2022/07/28 00:52:32;;;;;;;7.10;2.40;;;17.20;99.90;;;;;;5068984;28;20451;-68
2022/07/28 00:55:03;;;;;;;4.40;2.70;;;17.10;99.90;;;;;;5070051;28;20839;-70
2022/07/28 00:57:30;;;;;;;6.03;3.20;;;17.10;99.90;;;;;;5070386;28;20446;-67
2022/07/28 00:59:57;;;;;;;4.30;2.37;;;17.00;99.90;;;;;;5069984;28;20613;-68
2022/07/28 01:02:24;;;;;;;4.30;2.90;;;17.00;99.90;;;;;;5070782;28;20447;-68
2022/07/28 01:04:51;;;;;;;4.47;2.67;;;16.90;99.90;;;;;;5070686;28;20458;-68
2022/07/28 01:07:31;;;;;;;3.30;2.50;;;16.80;99.90;;;;;;5069357;28;20439;-70
2022/07/28 01:10:08;;;;;;;4.37;2.60;;;16.70;99.90;;;;;;5070034;28;20834;-68
2022/07/28 01:12:45;;;;;;;6.13;2.50;;;16.60;99.90;;;;;;5070748;28;20456;-67
2022/07/28 01:15:20;;;;;;;5.53;2.90;;;16.40;99.90;;;;;;5068987;28;20447;-67
2022/07/28 01:17:54;;;;;;;3.23;2.53;;;16.30;99.90;;;;;;5070660;28;20936;-68
2022/07/28 01:20:25;;;;;;;3.60;2.37;;;16.30;99.90;;;;;;5069578;28;20455;-67
2022/07/28 01:23:05;;;;;;;3.77;2.50;;;16.30;99.90;;;;;;5070268;28;20462;-68
2022/07/28 01:25:45;;;;;;;9.43;2.80;;;16.20;99.90;;;;;;5070058;28;20536;-68
2022/07/28 01:28:24;;;;;;;4.40;2.40;;;16.20;99.90;;;;;;5070685;28;20446;-69
2022/07/28 01:30:56;;;;;;;3.53;2.60;;;16.20;99.90;;;;;;5069549;28;20936;-68
2022/07/28 01:33:28;;;;;;;3.73;2.57;;;16.20;99.90;;;;;;5070381;28;20470;-69
2022/07/28 01:36:01;;;;;;;5.17;2.77;;;16.20;99.90;;;;;;5070845;28;20487;-69
2022/07/28 01:38:31;;;;;;;5.57;2.43;;;16.10;99.90;;;;;;5070160;28;20997;-68
2022/07/28 01:41:00;;;;;;;8.70;3.40;;;16.00;99.90;;;;;;5069268;28;20451;-68
2022/07/28 01:43:30;;;;;;;5.30;3.00;;;16.00;99.90;;;;;;5069281;28;20454;-68
2022/07/28 01:46:01;;;;;;;5.00;2.30;;;16.00;99.90;;;;;;5069397;28;20459;-69
2022/07/28 01:48:28;;;;;;;4.40;2.70;;;15.90;99.90;;;;;;5069772;28;20461;-68
2022/07/28 01:50:57;;;;;;;5.67;3.00;;;15.90;99.90;;;;;;5068959;28;20457;-69
2022/07/28 01:53:26;;;;;;;5.10;3.67;;;15.90;99.90;;;;;;5069508;28;20451;-70
2022/07/28 01:55:53;;;;;;;3.60;2.87;;;15.90;99.90;;;;;;5069395;28;21029;-69
2022/07/28 01:58:22;;;;;;;5.23;3.13;;;15.90;99.90;;;;;;5069365;28;20463;-69
2022/07/28 02:00:51;;;;;;;4.53;2.80;;;15.90;99.90;;;;;;5068754;28;20960;-68
2022/07/28 02:03:21;;;;;;;6.10;3.20;;;15.80;99.90;;;;;;5069386;28;20447;-70
2022/07/28 02:05:50;;;;;;;5.77;3.07;;;15.80;99.90;;;;;;5069025;28;20467;-69
2022/07/28 02:08:20;;;;;;;5.40;2.73;;;15.80;99.90;;;;;;5069282;28;20436;-69
2022/07/28 02:13:32;;;;;;;5.30;2.83;;;15.70;99.90;;;;;;5068750;28;20925;-69
2022/07/28 02:15:59;;;;;;;7.10;3.03;;;15.70;99.90;;;;;;5065952;28;20494;-69
2022/07/28 02:18:28;;;;;;;5.40;3.00;;;15.80;99.90;;;;;;5068560;28;20449;-69
2022/07/28 02:20:55;;;;;;;4.07;3.00;;;15.80;99.90;;;;;;5061806;28;20447;-69
2022/07/28 02:23:23;;;;;;;4.90;3.27;;;15.90;99.90;;;;;;5068472;28;20453;-69
2022/07/28 02:25:52;;;;;;;5.33;2.90;;;15.80;99.90;;;;;;5068835;28;21003;-69
2022/07/28 02:28:21;;;;;;;4.63;3.03;;;15.80;99.90;;;;;;5068706;28;20949;-70
2022/07/28 02:30:58;;;;;;;4.17;2.90;;;15.80;99.90;;;;;;5061725;28;20455;-70
2022/07/28 02:33:28;;;;;;;3.77;2.73;;;15.80;99.90;;;;;;5063238;28;20813;-70
2022/07/28 02:35:59;;;;;;;4.00;2.77;;;15.80;99.90;;;;;;5068503;28;20487;-69
2022/07/28 02:38:29;;;;;;;5.53;3.03;;;15.70;99.90;;;;;;5068311;28;20466;-70
2022/07/28 02:41:00;;;;;;;8.00;3.63;;;15.60;99.90;;;;;;5068597;28;20478;-70
2022/07/28 02:43:29;;;;;;;6.80;3.10;;;15.60;99.90;;;;;;5068490;28;20532;-69
2022/07/28 02:46:00;;;;;;;4.50;3.07;;;15.50;99.90;;;;;;5067880;28;20456;-69
2022/07/28 02:48:31;;;;;;;4.30;2.97;;;15.50;99.90;;;;;;5068466;28;20458;-69
2022/07/28 02:51:00;;;;;;;4.40;3.23;;;15.50;99.90;;;;;;5067538;28;20451;-69
2022/07/28 02:53:29;;;;;;;3.40;3.00;;;15.50;99.90;;;;;;5066807;28;20466;-69
2022/07/28 02:55:56;;;;;;;5.70;3.00;;;15.60;99.90;;;;;;5067925;28;20494;-69
2022/07/28 02:58:27;;;;;;;8.10;3.40;;;15.80;99.90;;;;;;5067906;28;20446;-68
2022/07/28 03:00:55;;;;;;;4.57;2.90;;;15.80;99.90;;;;;;5067893;28;20493;-68
2022/07/28 03:03:23;;;;;;;4.97;2.80;;;15.90;99.90;;;;;;5068185;28;20449;-69
2022/07/28 03:05:51;;;;;;;7.00;3.70;;;15.80;99.90;;;;;;5068161;28;20964;-70
2022/07/28 03:08:18;;;;;;;6.10;2.93;;;15.80;99.90;;;;;;5068066;28;20496;-68
2022/07/28 03:10:45;;;;;;;4.90;3.13;;;15.70;99.90;;;;;;5067446;28;20466;-69
2022/07/28 03:13:12;;;;;;;5.30;2.90;;;15.70;99.90;;;;;;5068034;28;20461;-69
2022/07/28 03:15:39;;;;;;;4.63;2.93;;;15.70;99.90;;;;;;5059930;28;21121;-70
2022/07/28 03:18:07;;;;;;;3.83;2.70;;;15.70;99.90;;;;;;5049760;28;20455;-70
2022/07/28 03:20:34;;;;;;;4.93;3.03;;;15.70;99.90;;;;;;5048707;28;20448;-67
2022/07/28 03:23:03;;;;;;;8.20;3.70;;;15.70;99.90;;;;;;5049594;28;20444;-71
2022/07/28 03:25:36;;;;;;;5.67;2.90;;;15.60;99.90;;;;;;5050866;28;20513;-70
2022/07/28 03:28:05;;;;;;;3.80;3.40;;;15.50;99.90;;;;;;5050201;28;20445;-71
2022/07/28 03:30:38;;;;;;;5.97;3.50;;;15.50;99.90;;;;;;5049575;28;20444;-70
2022/07/28 03:33:06;;;;;;;4.83;3.50;;;15.40;99.90;;;;;;5050270;28;20443;-70
2022/07/28 03:35:35;;;;;;;7.27;3.60;;;15.40;99.90;;;;;;5049240;28;20464;-71
2022/07/28 03:38:08;;;;;;;4.93;3.70;;;15.20;99.90;;;;;;5049542;28;20484;-71
2022/07/28 03:40:37;;;;;;;4.50;3.03;;;15.20;99.90;;;;;;5049313;28;20451;-70
2022/07/28 03:43:07;;;;;;;4.70;3.17;;;15.20;99.90;;;;;;5049925;28;20805;-70
2022/07/28 03:45:34;;;;;;;9.70;4.23;;;15.30;99.90;;;;;;5049837;28;20471;-70
2022/07/28 03:48:02;;;;;;;4.97;3.30;;;15.30;99.90;;;;;;5049848;28;20444;-69
2022/07/28 03:50:31;;;;;;;4.17;3.00;;;15.20;99.90;;;;;;5049311;28;20456;-70
2022/07/28 03:53:01;;;;;;;4.60;2.97;;;15.10;99.90;;;;;;5049648;28;20905;-71
2022/07/28 03:55:30;;;;;;;5.23;2.93;;;15.20;99.90;;;;;;5049747;28;20522;-72
2022/07/28 03:57:56;;;;;;;3.60;2.97;;;15.30;99.90;;;;;;5049549;28;20583;-70
2022/07/28 04:00:25;;;;;;;6.93;3.50;;;15.30;99.90;;;;;;5048621;28;20534;-69
2022/07/28 04:02:51;;;;;;;6.50;3.37;;;15.30;99.90;;;;;;5049431;28;20901;-69
2022/07/28 04:05:19;;;;;;;4.40;3.83;;;15.20;99.90;;;;;;5048606;28;20559;-70
2022/07/28 04:07:46;;;;;;;5.03;3.30;;;15.10;99.90;;;;;;5049590;28;20454;-70
2022/07/28 04:10:14;;;;;;;7.73;4.10;;;15.00;99.90;;;;;;5048371;28;20962;-70
2022/07/28 04:12:54;;;;;;;5.80;3.40;;;15.00;99.90;;;;;;5049373;28;20444;-70
2022/07/28 04:15:22;;;;;;;8.67;3.57;;;15.00;99.90;;;;;;5048681;28;20460;-70
2022/07/28 04:17:50;;;;;;;6.63;3.10;;;15.00;99.90;;;;;;5049045;28;20866;-71
2022/07/28 04:20:18;;;;;;;4.17;3.33;;;15.00;99.90;;;;;;5048690;28;20826;-69
2022/07/28 04:22:45;;;;;;;4.30;3.10;;;15.10;99.90;;;;;;5049376;28;20444;-71
2022/07/28 04:25:13;;;;;;;5.70;3.20;;;15.10;99.90;;;;;;5048744;28;20831;-69
2022/07/28 04:27:40;;;;;;;3.70;2.97;;;15.10;99.90;;;;;;5049277;28;20432;-70
2022/07/28 04:30:11;;;;;;;6.33;2.97;;;15.10;99.90;;;;;;5048189;28;20447;-69
2022/07/28 04:32:38;;;;;;;8.73;3.33;;;15.20;99.90;;;;;;5049311;28;20443;-69
2022/07/28 04:35:06;;;;;;;4.80;2.70;;;15.30;99.90;;;;;;5048916;28;20443;-70
2022/07/28 04:37:33;;;;;;;8.27;2.80;;;15.40;99.90;;;;;;5049031;28;20491;-71
2022/07/28 04:40:00;;;;;;;5.33;3.20;;;15.60;99.90;;;;;;5048342;28;20452;-71
2022/07/28 04:42:27;;;;;;;4.50;3.67;;;15.70;99.90;;;;;;5052430;28;20448;-70
2022/07/28 04:44:54;;;;;;;3.20;2.77;;;15.80;99.90;;;;;;5052593;28;20443;-69
2022/07/28 04:47:23;;;;;;;4.23;2.77;;;16.00;99.90;;;;;;5052859;28;20440;-70
2022/07/28 04:49:50;;;;;;;4.57;2.70;;;16.10;99.90;;;;;;5052495;28;20459;-70
2022/07/28 04:52:17;;;;;;;5.40;2.90;;;16.10;99.90;;;;;;5052426;28;20964;-69
2022/07/28 04:54:44;;;;;;;5.60;3.47;;;16.20;99.90;;;;;;5052512;28;20563;-72
2022/07/28 04:57:11;;;;;;;4.63;3.00;;;16.30;99.90;;;;;;5052513;28;20479;-70
2022/07/28 04:59:38;;;;;;;4.67;3.10;;;16.40;99.90;;;;;;5052448;28;20454;-71
2022/07/28 05:02:05;;;;;;;8.70;3.30;;;16.50;99.90;;;;;;5051657;28;20436;-70
2022/07/28 05:04:33;;;;;;;5.33;2.90;;;16.60;99.90;;;;;;5052175;28;20447;-70
2022/07/28 05:07:00;;;;;;;6.83;2.93;;;16.50;99.90;;;;;;5052588;28;20458;-70
2022/07/28 05:09:27;;;;;;;3.90;2.63;;;16.60;99.90;;;;;;5052231;28;20466;-70
2022/07/28 05:11:54;;;;;;;7.10;3.70;;;16.60;99.90;;;;;;5051476;28;20444;-70
2022/07/28 05:14:21;;;;;;;4.90;2.80;;;16.50;99.90;;;;;;5051491;28;20447;-70
2022/07/28 05:16:48;;;;;;;5.17;2.87;;;16.50;99.90;;;;;;5052263;28;21017;-70
2022/07/28 05:19:16;;;;;;;5.77;2.97;;;16.50;99.90;;;;;;5053033;28;20447;-69
2022/07/28 05:21:44;;;;;;;5.97;3.43;;;16.50;99.90;;;;;;5051215;28;20467;-70
2022/07/28 05:24:12;;;;;;;4.97;3.20;;;16.50;99.90;;;;;;5051772;28;20436;-70
2022/07/28 05:26:39;;;;;;;4.90;3.33;;;16.60;99.90;;;;;;5051272;28;20509;-69
2022/07/28 05:29:06;;;;;;;8.00;3.40;;;16.60;99.90;;;;;;5052197;28;20463;-69
2022/07/28 05:31:33;;;;;;;4.67;3.90;;;16.70;99.90;;;;;;5051277;28;20794;-69
2022/07/28 05:34:00;;;;;;;5.10;3.13;;;16.90;99.90;;;;;;5051780;28;20930;-71
2022/07/28 05:36:27;;;;;;;3.83;2.87;;;17.00;99.90;;;;;;5051355;28;20534;-70
2022/07/28 05:38:55;;;;;;;6.90;4.07;;;17.10;99.90;;;;;;5051943;28;20466;-69
2022/07/28 05:41:22;;;;;;;7.73;3.57;;;17.10;99.90;;;;;;5051250;28;20444;-69
2022/07/28 05:43:48;;;;;;;5.70;3.20;;;17.10;99.90;;;;;;5053083;28;20443;-68
2022/07/28 05:46:15;;;;;;;7.53;4.70;;;17.10;99.90;;;;;;5051505;28;20456;-71
2022/07/28 05:48:42;;;;;;;6.30;3.20;;;17.10;99.90;;;;;;5051777;28;20438;-70
2022/07/28 05:51:09;;;;;;;4.70;3.67;;;17.20;99.90;;;;;;5051022;28;20450;-72
2022/07/28 05:53:36;;;;;;;6.13;3.70;;;17.30;99.90;;;;;;5051259;28;20462;-70
2022/07/28 05:56:04;;;;;;;6.33;3.30;;;17.40;99.90;;;;;;5051337;28;20464;-69
2022/07/28 05:58:31;;;;;;;8.27;3.93;;;17.30;99.90;;;;;;5052078;28;20495;-70
2022/07/28 06:01:02;;;;;;;6.50;3.50;;;17.50;99.90;;;;;;5050819;28;20446;-71
2022/07/28 06:03:30;;;;;;;4.57;3.10;;;17.50;99.90;;;;;;5051610;28;20443;-70
2022/07/28 06:05:57;;;;;;;5.03;3.93;;;17.60;99.90;;;;;;5050949;28;20487;-70
2022/07/28 06:08:24;;;;;;;4.67;3.70;;;17.60;99.90;;;;;;5051534;28;20443;-70
2022/07/28 06:11:07;;;;;;;5.00;3.47;;;17.80;99.90;;;;;;5050725;28;20432;-71
2022/07/28 06:13:36;;;;;;;5.40;3.40;;;17.80;99.90;;;;;;5051457;28;20819;-70
2022/07/28 06:16:03;;;;;;;7.07;3.77;;;17.90;99.90;;;;;;5051052;28;20460;-70
2022/07/28 06:18:30;;;;;;;5.00;3.10;;;18.00;99.90;;;;;;5050989;28;20486;-71
2022/07/28 06:20:57;;;;;;;4.30;3.60;;;18.10;99.90;;;;;;5050784;28;20441;-70
2022/07/28 06:23:24;;;;;;;7.17;3.50;;;18.10;99.90;;;;;;5051456;28;20444;-71
2022/07/28 06:25:52;;;;;;;6.13;3.93;;;18.20;99.90;;;;;;5051182;28;20463;-69
2022/07/28 06:28:19;;;;;;;5.00;3.30;;;18.30;99.90;;;;;;5051248;28;20439;-70
2022/07/28 06:30:47;;;;;;;4.47;3.80;;;18.40;99.90;;;;;;5049514;28;20428;-70
2022/07/28 06:33:14;;;;;;;8.17;3.30;;;18.50;99.90;;;;;;5051220;28;20459;-73
2022/07/28 06:35:41;;;;;;;8.57;4.10;;;18.70;99.90;;;;;;5050704;28;20467;-69
2022/07/28 06:38:08;;;;;;;4.33;3.50;;;18.70;99.90;;;;;;5050737;28;20478;-72
2022/07/28 06:40:35;;;;;;;6.63;4.23;;;18.80;99.90;;;;;;5050338;28;20432;-69
2022/07/28 06:43:02;;;;;;;5.90;4.37;;;18.80;99.90;;;;;;5050846;28;20432;-72
2022/07/28 06:45:29;;;;;;;4.90;3.70;;;18.90;99.90;;;;;;5050301;28;21114;-71
2022/07/28 06:47:57;;;;;;;7.33;3.83;;;18.90;99.90;;;;;;5050668;28;20449;-72
2022/07/28 06:50:24;;;;;;;4.70;3.50;;;19.10;99.90;;;;;;5049932;28;20444;-70
2022/07/28 06:52:51;;;;;;;7.00;4.50;;;19.20;99.90;;;;;;5050774;28;20440;-72
2022/07/28 06:55:18;;;;;;;9.03;4.60;;;19.20;99.90;;;;;;5050235;28;20463;-69
2022/07/28 06:57:44;;;;;;;4.73;3.60;;;19.30;99.90;;;;;;5050680;28;20484;-70
2022/07/28 07:00:13;;;;;;;9.10;4.50;;;19.40;99.90;;;;;;5049728;28;20436;-71
2022/07/28 07:02:40;;;;;;;6.73;4.37;;;19.40;99.90;;;;;;5050333;28;20450;-71
2022/07/28 07:05:11;;;;;;;5.70;4.60;;;19.50;99.90;;;;;;5048902;28;20554;-72
2022/07/28 07:07:38;;;;;;;7.30;4.57;;;19.70;99.90;;;;;;5050293;28;20436;-71
2022/07/28 07:10:06;;;;;;;7.30;4.80;;;19.80;99.90;;;;;;5049371;28;20458;-71
2022/07/28 07:12:33;;;;;;;5.90;4.63;;;19.80;99.90;;;;;;5050364;28;20450;-71
2022/07/28 07:15:00;;;;;;;5.70;4.70;;;19.90;99.90;;;;;;5049699;28;20485;-71
2022/07/28 07:17:27;;;;;;;5.00;4.20;;;19.80;99.90;;;;;;5050069;28;20502;-72
2022/07/28 07:19:54;;;;;;;6.60;4.93;;;19.90;99.90;;;;;;5049673;28;20440;-72
2022/07/28 07:22:22;;;;;;;6.57;4.77;;;20.00;99.90;;;;;;5050271;28;20444;-71
2022/07/28 07:24:49;;;;;;;6.27;5.03;;;20.20;99.90;;;;;;5050098;28;20454;-71
2022/07/28 07:27:16;;;;;;;7.43;5.10;;;20.30;99.90;;;;;;5053870;28;20473;-71
2022/07/28 07:29:43;;;;;;;6.23;5.33;;;20.40;99.90;;;;;;5055677;28;20448;-71
2022/07/28 07:32:09;;;;;;;5.40;4.90;;;20.60;99.90;;;;;;5064416;28;20864;-75
2022/07/28 07:34:38;;;;;;;8.43;5.60;;;20.70;99.90;;;;;;5061449;28;20444;-71
2022/07/28 07:37:06;;;;;;;7.20;5.93;;;20.80;99.90;;;;;;5049634;28;20483;-71
2022/07/28 07:39:34;;;;;;;6.60;5.67;;;20.80;99.90;;;;;;5057144;28;20451;-71
2022/07/28 07:42:01;;;;;;;7.03;6.30;;;21.00;99.90;;;;;;5061709;28;20451;-70
2022/07/28 07:44:28;;;;;;;6.40;5.30;;;21.10;99.90;;;;;;5065015;28;20700;-69
2022/07/28 07:46:54;;;;;;;6.30;5.17;;;21.30;99.90;;;;;;5063427;28;20482;-71
2022/07/28 07:49:21;;;;;;;10.37;6.10;;;21.40;99.90;;;;;;5064643;28;20530;-73
2022/07/28 07:51:48;;;;;;;6.17;5.57;;;21.50;99.90;;;;;;5057804;28;20540;-72
2022/07/28 07:54:15;;;;;;;6.90;5.97;;;21.50;99.90;;;;;;5057654;28;20543;-72
2022/07/28 07:56:43;;;;;;;7.57;5.53;;;21.70;99.90;;;;;;5062534;28;20470;-71
2022/07/28 07:59:10;;;;;;;9.63;5.83;;;21.80;99.90;;;;;;5066974;28;20866;-72
2022/07/28 08:01:37;;;;;;;8.02;6.40;;;21.90;99.90;;;;;;5057955;28;20454;-73
2022/07/28 08:04:03;;;;;;;10.93;7.17;;;22.10;99.90;;;;;;5067801;28;20731;-69
2022/07/28 08:06:30;;;;;;;7.20;6.30;;;22.10;99.90;;;;;;5065819;28;20463;-72
2022/07/28 08:08:57;;;;;;;7.30;5.77;;;22.30;99.90;;;;;;5058656;28;20440;-71
2022/07/28 08:11:24;;;;;;;8.53;6.07;;;22.30;99.90;;;;;;5068873;28;20443;-73
2022/07/28 08:13:52;;;;;;;12.33;7.33;;;22.40;99.90;;;;;;5062908;28;20459;-72
2022/07/28 08:16:19;;;;;;;6.80;6.10;;;22.50;99.90;;;;;;5061498;28;20845;-74
2022/07/28 08:18:45;;;;;;;7.33;6.63;;;22.60;99.90;;;;;;5062831;28;20582;-71
2022/07/28 08:21:13;;;;;;;8.43;5.80;;;22.80;99.90;;;;;;5070953;28;20453;-72
2022/07/28 08:23:40;;;;;;;7.67;6.80;;;22.90;99.90;;;;;;5063155;28;22145;-69
2022/07/28 08:26:07;;;;;;;6.93;6.33;;;23.10;99.90;;;;;;5068259;28;20477;-71
2022/07/28 08:28:33;;;;;;;7.00;6.30;;;23.20;99.90;;;;;;5064172;28;20439;-70
2022/07/28 08:31:02;;;;;;;7.00;6.40;;;23.30;99.90;;;;;;5063846;28;20447;-69
2022/07/28 08:33:29;;;;;;;7.23;6.53;;;23.40;99.90;;;;;;5069469;28;20450;-68
2022/07/28 08:35:56;;;;;;;8.77;8.00;;;23.40;99.90;;;;;;5069049;28;20483;-69
2022/07/28 08:38:23;;;;;;;7.67;6.17;;;23.40;99.90;;;;;;5072865;28;20478;-71
2022/07/28 08:40:53;;;;;;;6.60;5.87;;;23.50;99.90;;;;;;5065227;28;20467;-71
2022/07/28 08:43:30;;;;;;;6.57;5.67;;;23.60;99.90;;;;;;5067665;28;20820;-72
2022/07/28 08:45:59;;;;;;;6.57;5.97;;;23.80;99.90;;;;;;5065343;28;20463;-69
2022/07/28 08:48:30;;;;;;;8.23;5.77;;;24.00;99.90;;;;;;5067734;28;20497;-69
2022/07/28 08:51:00;;;;;;;6.77;6.07;;;24.10;99.90;;;;;;5071141;28;20826;-70
2022/07/28 08:53:28;;;;;;;6.90;6.20;;;24.30;99.90;;;;;;5064613;28;20480;-68
2022/07/28 08:55:58;;;;;;;6.30;5.80;;;24.50;99.90;;;;;;5064806;28;20482;-69
2022/07/28 08:58:25;;;;;;;7.63;6.83;;;24.60;99.90;;;;;;5062234;28;20860;-68
2022/07/28 09:00:52;;;;;;;7.20;6.37;;;24.80;99.90;;;;;;5058175;28;20460;-71
2022/07/28 09:03:19;;;;;;;8.97;7.00;;;25.00;99.90;;;;;;5060805;28;20567;-69
2022/07/28 09:05:49;;;;;;;6.93;5.70;;;25.10;99.90;;;;;;5063693;28;20466;-70
2022/07/28 09:08:18;;;;;;;6.60;5.90;;;25.10;99.90;;;;;;5059096;28;20447;-69
2022/07/28 09:10:45;;;;;;;7.23;6.37;;;25.10;99.90;;;;;;5056766;28;20458;-69
2022/07/28 09:13:12;;;;;;;6.40;5.80;;;25.30;99.90;;;;;;5058243;28;20841;-68
2022/07/28 09:15:39;;;;;;;6.47;5.87;;;25.40;99.90;;;;;;5059217;28;20479;-70
2022/07/28 09:18:06;;;;;;;8.60;5.87;;;25.60;99.90;;;;;;5065893;28;20481;-69
2022/07/28 09:20:36;;;;;;;10.93;6.47;;;25.80;99.90;;;;;;5061157;28;21470;-68
2022/07/28 09:23:06;;;;;;;8.20;6.13;;;25.70;98.90;;;;;;5066337;28;20447;-71
2022/07/28 09:25:33;;;;;;;6.97;6.30;;;25.30;99.50;;;;;;5062128;28;20516;-68
2022/07/28 09:28:07;;;;;;;5.80;5.30;;;25.20;99.80;;;;;;5063335;28;20453;-69
2022/07/28 09:30:36;;;;;;;7.97;6.43;;;25.30;99.90;;;;;;5061765;28;20435;-70
2022/07/28 09:33:19;;;;;;;6.53;5.93;;;25.60;99.90;;;;;;5065259;28;20468;-68
2022/07/28 09:35:49;;;;;;;6.73;6.00;;;25.70;99.80;;;;;;5064944;28;20478;-70
2022/07/28 09:38:17;;;;;;;8.17;6.30;;;26.10;99.90;;;;;;5064340;28;20502;-69
2022/07/28 09:40:56;;;;;;;7.03;6.43;;;26.40;98.00;;;;;;5054534;28;20824;-70
2022/07/28 09:43:32;;;;;;;6.50;5.60;;;26.70;99.40;;;;;;5058004;28;20443;-70
2022/07/28 09:46:07;;;;;;;7.57;6.07;;;26.90;98.00;;;;;;5068878;28;20462;-69
2022/07/28 09:48:35;;;;;;;6.60;6.00;;;27.00;97.70;;;;;;5050059;28;20501;-69
2022/07/28 09:51:13;;;;;;;6.30;5.53;;;27.00;97.20;;;;;;5059056;28;20457;-71
2022/07/28 09:53:43;;;;;;;6.30;5.80;;;27.30;96.80;;;;;;5066637;28;20869;-70
2022/07/28 09:56:11;;;;;;;6.07;5.13;;;27.70;96.10;;;;;;5064662;28;20852;-70
2022/07/28 09:58:39;;;;;;;10.47;5.83;;;28.10;96.10;;;;;;5071569;28;20875;-69
2022/07/28 10:01:07;;;;;;;7.80;5.27;;;28.50;93.60;;;;;;5070796;28;20507;-70
2022/07/28 10:03:35;;;;;;;6.60;6.00;;;29.20;94.30;;;;;;5071340;28;20458;-71
2022/07/28 10:06:07;;;;;;;6.50;5.43;;;29.60;92.70;;;;;;5071126;28;20471;-70
2022/07/28 10:08:46;;;;;;;6.07;5.00;;;29.90;92.00;;;;;;5071462;28;20462;-69
2022/07/28 10:11:14;;;;;;;5.57;5.07;;;30.50;90.70;;;;;;5070604;28;20457;-69
2022/07/28 10:13:53;;;;;;;7.23;5.67;;;31.10;90.10;;;;;;5068862;28;20455;-69
2022/07/28 10:16:20;;;;;;;5.70;4.97;;;31.50;84.50;;;;;;5067304;28;20521;-70
2022/07/28 10:18:48;;;;;;;6.23;5.73;;;31.80;82.90;;;;;;5067893;28;20471;-69
2022/07/28 10:21:17;;;;;;;7.50;5.00;;;31.30;81.80;;;;;;5070337;28;20459;-69
2022/07/28 10:23:49;;;;;;;5.07;4.57;;;30.60;85.70;;;;;;5071398;28;20487;-69
2022/07/28 10:26:19;;;;;;;6.47;5.10;;;31.20;87.00;;;;;;5070739;28;20471;-70
2022/07/28 10:28:49;;;;;;;5.67;4.90;;;31.90;82.90;;;;;;5071077;28;20443;-69
2022/07/28 10:31:34;;;;;;;5.97;5.20;;;31.90;82.20;;;;;;5070126;28;20454;-69
2022/07/28 10:34:02;;;;;;;5.57;5.07;;;31.60;80.10;;;;;;5071040;28;20443;-69
2022/07/28 10:36:32;;;;;;;6.33;5.73;;;31.20;84.10;;;;;;5067934;28;20478;-69
2022/07/28 10:39:06;;;;;;;4.87;4.37;;;31.60;81.30;;;;;;5068254;28;20703;-69
2022/07/28 10:41:40;;;;;;;6.77;4.37;;;32.50;80.70;;;;;;5066467;28;20901;-70
2022/07/28 10:44:08;;;;;;;8.87;5.90;;;33.60;77.80;;;;;;5067670;28;20446;-70
2022/07/28 10:46:37;;;;;;;5.30;4.80;;;33.00;73.90;;;;;;5070288;28;20907;-69
2022/07/28 10:49:04;;;;;;;5.80;5.30;;;32.50;78.20;;;;;;5065619;28;20878;-69
2022/07/28 10:51:31;;;;;;;4.47;4.07;;;32.70;77.30;;;;;;5061688;28;20557;-69
2022/07/28 10:54:08;;;;;;;5.50;4.90;;;33.10;77.80;;;;;;5068203;28;20454;-70
2022/07/28 10:56:46;;;;;;;5.57;4.77;;;33.90;74.60;;;;;;5064085;28;20463;-70
2022/07/28 10:59:25;;;;;;;7.00;4.50;;;32.70;73.50;;;;;;5070917;28;20503;-69
2022/07/28 11:01:52;;;;;;;7.53;5.67;;;32.20;76.60;;;;;;5069663;28;20454;-70
2022/07/28 11:04:51;;;;;;;5.97;4.63;;;32.10;78.20;;;;;;5069821;28;20576;-69
2022/07/28 11:07:18;;;;;;;5.27;4.70;;;31.90;77.80;;;;;;5070357;28;20463;-71
2022/07/28 11:09:47;;;;;;;8.07;4.73;;;31.00;76.30;;;;;;5069822;28;20443;-69
2022/07/28 11:12:14;;;;;;;6.03;4.73;;;30.90;81.80;;;;;;5069887;28;20443;-70
2022/07/28 11:14:42;;;;;;;7.13;5.70;;;31.40;79.80;;;;;;5054310;28;20443;-69
2022/07/28 11:17:17;;;;;;;5.20;4.70;;;31.80;76.90;;;;;;5065806;28;20524;-68
2022/07/28 11:19:57;;;;;;;7.80;5.43;;;31.20;77.50;;;;;;5065863;28;20485;-68
2022/07/28 11:22:28;;;;;;;6.27;4.43;;;31.30;79.50;;;;;;5066221;28;20497;-69
2022/07/28 11:25:16;;;;;;;8.37;4.63;;;31.50;78.50;;;;;;5065318;28;20949;-69
2022/07/28 11:28:03;;;;;;;6.70;4.63;;;32.30;76.10;;;;;;5066052;28;20439;-68
2022/07/28 11:30:49;;;;;;;5.50;4.77;;;32.40;74.30;;;;;;5065062;28;20447;-70
2022/07/28 11:33:16;;;;;;;5.03;4.33;;;32.10;76.90;;;;;;5066028;28;20554;-68
2022/07/28 11:35:59;;;;;;;5.07;4.67;;;31.70;75.40;;;;;;5051924;28;20554;-69
2022/07/28 11:38:26;;;;;;;4.57;4.17;;;31.20;76.10;;;;;;5057495;28;20989;-68
2022/07/28 11:40:56;;;;;;;5.40;4.90;;;31.00;77.80;;;;;;5064099;28;20474;-71
2022/07/28 11:43:30;;;;;;;8.77;5.00;;;30.90;76.60;;;;;;5065785;28;20451;-70
2022/07/28 11:46:31;;;;;;;5.40;4.90;;;30.90;80.10;;;;;;5064866;28;20501;-70
2022/07/28 11:49:23;;;;;;;5.50;4.80;;;31.50;77.10;;;;;;5066267;28;20870;-68
2022/07/28 11:52:13;;;;;;;5.30;4.50;;;32.40;75.60;;;;;;5064590;28;20840;-69
2022/07/28 11:54:42;;;;;;;5.20;4.70;;;33.60;75.80;;;;;;5065327;28;20466;-69
2022/07/28 11:57:10;;;;;;;5.93;4.70;;;34.30;71.70;;;;;;5065662;28;20496;-68
2022/07/28 11:59:49;;;;;;;5.33;4.50;;;34.20;65.20;;;;;;5065562;28;20495;-70
2022/07/28 12:02:21;;;;;;;4.80;4.40;;;34.20;64.80;;;;;;5065718;28;20473;-70
2022/07/28 12:05:05;;;;;;;8.03;4.40;;;33.90;66.00;;;;;;5064964;28;20932;-72
2022/07/28 12:07:35;;;;;;;6.70;5.00;;;33.70;70.70;;;;;;5066005;28;20439;-72
2022/07/28 12:10:21;;;;;;;5.07;4.57;;;34.00;69.60;;;;;;5065020;28;20925;-69
2022/07/28 12:12:51;;;;;;;7.10;5.10;;;34.10;68.90;;;;;;5065929;28;20446;-69
2022/07/28 12:15:19;;;;;;;5.60;5.07;;;35.20;68.30;;;;;;5064432;28;20455;-69
2022/07/28 12:17:46;;;;;;;5.00;4.50;;;35.50;64.90;;;;;;5066141;28;20439;-69
2022/07/28 12:20:16;;;;;;;6.73;4.77;;;35.70;64.00;;;;;;5062166;28;20482;-68
2022/07/28 12:22:55;;;;;;;7.10;4.60;;;36.10;64.30;;;;;;5064115;28;20439;-68
2022/07/28 12:25:22;;;;;;;5.07;4.57;;;36.50;62.00;;;;;;5064160;28;20512;-72
2022/07/28 12:27:50;;;;;;;5.10;4.60;;;36.40;61.60;;;;;;5063994;28;20442;-72
2022/07/28 12:30:25;;;;;;;4.03;3.60;;;36.70;60.10;;;;;;5064289;28;21151;-68
2022/07/28 12:32:52;;;;;;;7.33;4.30;;;35.90;59.90;;;;;;5064690;28;21239;-70
2022/07/28 12:35:20;;;;;;;5.10;4.60;;;35.40;60.50;;;;;;5065221;28;20459;-69
2022/07/28 12:37:48;;;;;;;5.00;4.60;;;34.80;61.80;;;;;;5065536;28;20474;-69
2022/07/28 12:40:17;;;;;;;4.93;4.50;;;34.10;61.70;;;;;;5064577;28;20487;-69
2022/07/28 12:42:44;;;;;;;4.40;3.70;;;33.50;65.20;;;;;;5065729;28;20543;-69
2022/07/28 12:45:13;;;;;;;5.13;4.57;;;34.00;65.60;;;;;;5064660;28;20455;-69
2022/07/28 12:47:40;;;;;;;6.17;3.60;;;34.90;59.50;;;;;;5065538;28;20542;-68
2022/07/28 12:50:09;;;;;;;4.40;4.00;;;35.20;59.50;;;;;;5065063;28;20962;-69
2022/07/28 12:52:36;;;;;;;6.80;4.30;;;35.10;57.10;;;;;;5065118;28;21132;-69
2022/07/28 12:55:21;;;;;;;7.83;3.80;;;34.90;59.00;;;;;;5065436;28;20827;-70
2022/07/28 12:57:50;;;;;;;4.10;3.70;;;34.80;58.20;;;;;;5065507;28;20434;-69
2022/07/28 13:00:22;;;;;;;6.20;3.77;;;34.80;58.20;;;;;;5065000;28;20569;-69